sensor_id;sensor_type;location;lat;lon;timestamp;pressure;altitude;pressure_sealevel;temperature;humidity
77545;BME280;66672;50.328;7.610;2023-02-01T00:01:49;100434.13;;;6.76;74.09
77545;BME280;66672;50.328;7.610;2023-02-01T00:04:14;100432.81;;;6.68;73.36
77545;BME280;66672;50.328;7.610;2023-02-01T00:06:40;100435.28;;;6.57;73.65
77545;BME280;66672;50.328;7.610;2023-02-01T00:09:05;100436.59;;;6.64;73.26
77545;BME280;66672;50.328;7.610;2023-02-01T00:11:30;100446.66;;;6.59;73.12
77545;BME280;66672;50.328;7.610;2023-02-01T00:13:56;100440.81;;;7.10;72.53
77545;BME280;66672;50.328;7.610;2023-02-01T00:16:26;100452.91;;;6.58;73.60
77545;BME280;66672;50.328;7.610;2023-02-01T00:18:57;100445.78;;;6.73;73.06
77545;BME280;66672;50.328;7.610;2023-02-01T00:21:23;100442.56;;;6.68;74.54
77545;BME280;66672;50.328;7.610;2023-02-01T00:23:48;100435.25;;;6.72;73.55
77545;BME280;66672;50.328;7.610;2023-02-01T00:26:19;100432.25;;;6.63;73.89
77545;BME280;66672;50.328;7.610;2023-02-01T00:28:45;100425.09;;;6.78;74.33
77545;BME280;66672;50.328;7.610;2023-02-01T00:31:11;100425.88;;;6.66;74.09
77545;BME280;66672;50.328;7.610;2023-02-01T00:33:36;100423.59;;;6.74;74.71
77545;BME280;66672;50.328;7.610;2023-02-01T00:36:06;100418.66;;;6.82;74.28
77545;BME280;66672;50.328;7.610;2023-02-01T00:38:34;100429.88;;;6.59;75.76
77545;BME280;66672;50.328;7.610;2023-02-01T00:41:11;100424.75;;;6.70;74.85
77545;BME280;66672;50.328;7.610;2023-02-01T00:43:37;100436.59;;;6.93;74.34
77545;BME280;66672;50.328;7.610;2023-02-01T00:46:02;100432.97;;;6.94;74.67
77545;BME280;66672;50.328;7.610;2023-02-01T00:48:28;100428.63;;;6.64;75.28
77545;BME280;66672;50.328;7.610;2023-02-01T00:50:53;100441.91;;;6.50;75.75
77545;BME280;66672;50.328;7.610;2023-02-01T00:53:18;100431.19;;;6.66;75.13
77545;BME280;66672;50.328;7.610;2023-02-01T00:55:47;100426.81;;;6.93;75.13
77545;BME280;66672;50.328;7.610;2023-02-01T00:58:14;100421.41;;;6.38;76.33
77545;BME280;66672;50.328;7.610;2023-02-01T01:00:39;100425.50;;;6.86;74.44
77545;BME280;66672;50.328;7.610;2023-02-01T01:03:05;100437.81;;;6.73;75.63
77545;BME280;66672;50.328;7.610;2023-02-01T01:05:57;100437.63;;;6.76;75.52
77545;BME280;66672;50.328;7.610;2023-02-01T01:08:22;100442.00;;;6.77;75.53
77545;BME280;66672;50.328;7.610;2023-02-01T01:10:48;100423.22;;;6.80;75.42
77545;BME280;66672;50.328;7.610;2023-02-01T01:13:14;100432.22;;;6.78;75.36
77545;BME280;66672;50.328;7.610;2023-02-01T01:15:40;100422.94;;;6.71;75.43
77545;BME280;66672;50.328;7.610;2023-02-01T01:18:06;100434.22;;;6.88;75.38
77545;BME280;66672;50.328;7.610;2023-02-01T01:20:36;100428.22;;;6.85;74.81
77545;BME280;66672;50.328;7.610;2023-02-01T01:23:03;100419.16;;;6.60;75.19
77545;BME280;66672;50.328;7.610;2023-02-01T01:25:28;100433.00;;;6.65;74.99
77545;BME280;66672;50.328;7.610;2023-02-01T01:27:54;100418.28;;;6.74;74.25
77545;BME280;66672;50.328;7.610;2023-02-01T01:30:19;100437.44;;;6.93;74.66
77545;BME280;66672;50.328;7.610;2023-02-01T01:32:44;100441.63;;;7.25;73.72
77545;BME280;66672;50.328;7.610;2023-02-01T01:35:10;100435.13;;;7.02;74.25
77545;BME280;66672;50.328;7.610;2023-02-01T01:37:36;100439.69;;;7.00;74.38
77545;BME280;66672;50.328;7.610;2023-02-01T01:40:03;100422.06;;;6.84;74.41
77545;BME280;66672;50.328;7.610;2023-02-01T01:42:28;100416.19;;;6.79;74.94
77545;BME280;66672;50.328;7.610;2023-02-01T01:44:59;100415.81;;;6.71;74.41
77545;BME280;66672;50.328;7.610;2023-02-01T01:47:35;100388.25;;;7.01;73.61
77545;BME280;66672;50.328;7.610;2023-02-01T01:50:04;100392.22;;;7.08;73.40
77545;BME280;66672;50.328;7.610;2023-02-01T01:52:32;100401.97;;;7.21;72.69
77545;BME280;66672;50.328;7.610;2023-02-01T01:54:59;100397.19;;;6.85;72.85
77545;BME280;66672;50.328;7.610;2023-02-01T01:57:31;100388.13;;;6.61;73.37
77545;BME280;66672;50.328;7.610;2023-02-01T02:00:05;100381.94;;;6.89;72.68
77545;BME280;66672;50.328;7.610;2023-02-01T02:02:33;100384.53;;;7.03;72.33
77545;BME280;66672;50.328;7.610;2023-02-01T02:04:58;100370.00;;;7.09;71.96
77545;BME280;66672;50.328;7.610;2023-02-01T02:07:30;100384.06;;;7.11;73.01
77545;BME280;66672;50.328;7.610;2023-02-01T02:09:57;100383.09;;;6.71;72.90
77545;BME280;66672;50.328;7.610;2023-02-01T02:12:23;100380.22;;;6.88;72.84
77545;BME280;66672;50.328;7.610;2023-02-01T02:14:48;100381.53;;;6.95;71.79
77545;BME280;66672;50.328;7.610;2023-02-01T02:23:32;100415.78;;;7.00;72.40
77545;BME280;66672;50.328;7.610;2023-02-01T02:26:08;100403.84;;;6.92;72.01
77545;BME280;66672;50.328;7.610;2023-02-01T02:28:54;100412.75;;;6.91;72.32
77545;BME280;66672;50.328;7.610;2023-02-01T02:37:16;100403.31;;;7.41;72.02
77545;BME280;66672;50.328;7.610;2023-02-01T02:39:58;100401.59;;;7.13;72.77
77545;BME280;66672;50.328;7.610;2023-02-01T02:42:59;100400.53;;;6.89;73.40
77545;BME280;66672;50.328;7.610;2023-02-01T02:45:51;100385.94;;;7.09;72.90
77545;BME280;66672;50.328;7.610;2023-02-01T02:48:46;100390.00;;;7.14;71.78
77545;BME280;66672;50.328;7.610;2023-02-01T02:51:17;100381.31;;;6.71;72.03
77545;BME280;66672;50.328;7.610;2023-02-01T02:54:08;100380.56;;;7.10;72.18
77545;BME280;66672;50.328;7.610;2023-02-01T02:56:56;100373.44;;;7.11;71.40
77545;BME280;66672;50.328;7.610;2023-02-01T02:59:43;100369.31;;;6.92;72.54
77545;BME280;66672;50.328;7.610;2023-02-01T03:02:28;100370.09;;;6.80;71.72
77545;BME280;66672;50.328;7.610;2023-02-01T03:05:13;100381.47;;;7.09;71.36
77545;BME280;66672;50.328;7.610;2023-02-01T03:16:12;100373.66;;;7.20;69.98
77545;BME280;66672;50.328;7.610;2023-02-01T03:18:57;100366.72;;;7.05;70.12
77545;BME280;66672;50.328;7.610;2023-02-01T03:21:29;100369.47;;;7.04;70.78
77545;BME280;66672;50.328;7.610;2023-02-01T03:24:00;100366.81;;;7.04;70.26
77545;BME280;66672;50.328;7.610;2023-02-01T03:26:28;100366.09;;;6.73;70.71
77545;BME280;66672;50.328;7.610;2023-02-01T03:29:03;100359.53;;;7.20;69.38
77545;BME280;66672;50.328;7.610;2023-02-01T03:31:29;100364.38;;;7.13;69.63
77545;BME280;66672;50.328;7.610;2023-02-01T03:33:54;100360.72;;;7.02;70.45
77545;BME280;66672;50.328;7.610;2023-02-01T03:36:38;100359.59;;;6.91;70.30
77545;BME280;66672;50.328;7.610;2023-02-01T03:39:26;100365.06;;;7.17;68.91
77545;BME280;66672;50.328;7.610;2023-02-01T03:41:59;100350.50;;;6.95;70.20
77545;BME280;66672;50.328;7.610;2023-02-01T03:44:43;100367.66;;;7.04;69.64
77545;BME280;66672;50.328;7.610;2023-02-01T03:47:18;100359.91;;;7.41;67.92
77545;BME280;66672;50.328;7.610;2023-02-01T03:49:49;100364.91;;;6.91;70.34
77545;BME280;66672;50.328;7.610;2023-02-01T03:52:31;100351.69;;;7.31;68.39
77545;BME280;66672;50.328;7.610;2023-02-01T03:54:58;100357.41;;;7.25;68.59
77545;BME280;66672;50.328;7.610;2023-02-01T03:57:31;100350.13;;;7.41;68.35
77545;BME280;66672;50.328;7.610;2023-02-01T04:00:15;100355.56;;;7.13;68.30
77545;BME280;66672;50.328;7.610;2023-02-01T04:02:41;100346.88;;;6.97;69.13
77545;BME280;66672;50.328;7.610;2023-02-01T04:05:07;100347.16;;;7.33;67.65
77545;BME280;66672;50.328;7.610;2023-02-01T04:07:32;100354.31;;;7.45;68.04
77545;BME280;66672;50.328;7.610;2023-02-01T04:09:57;100355.38;;;6.89;68.58
77545;BME280;66672;50.328;7.610;2023-02-01T04:12:23;100368.06;;;6.98;68.31
77545;BME280;66672;50.328;7.610;2023-02-01T04:14:48;100360.88;;;7.13;68.12
77545;BME280;66672;50.328;7.610;2023-02-01T04:17:13;100367.00;;;7.28;67.49
77545;BME280;66672;50.328;7.610;2023-02-01T04:19:39;100350.06;;;6.89;67.92
77545;BME280;66672;50.328;7.610;2023-02-01T04:22:04;100362.28;;;7.18;66.85
77545;BME280;66672;50.328;7.610;2023-02-01T04:24:29;100357.38;;;7.12;67.79
77545;BME280;66672;50.328;7.610;2023-02-01T04:26:54;100348.03;;;7.19;66.89
77545;BME280;66672;50.328;7.610;2023-02-01T04:29:20;100357.50;;;7.51;67.08
77545;BME280;66672;50.328;7.610;2023-02-01T04:31:45;100355.81;;;7.22;67.42
77545;BME280;66672;50.328;7.610;2023-02-01T04:34:11;100349.53;;;6.97;67.51
77545;BME280;66672;50.328;7.610;2023-02-01T04:36:36;100349.84;;;7.46;67.04
77545;BME280;66672;50.328;7.610;2023-02-01T04:39:02;100349.59;;;7.36;66.43
77545;BME280;66672;50.328;7.610;2023-02-01T04:41:27;100348.44;;;7.13;67.40
77545;BME280;66672;50.328;7.610;2023-02-01T04:43:54;100354.91;;;7.36;66.45
77545;BME280;66672;50.328;7.610;2023-02-01T04:46:19;100369.00;;;7.51;65.58
77545;BME280;66672;50.328;7.610;2023-02-01T04:48:44;100381.00;;;7.17;66.68
77545;BME280;66672;50.328;7.610;2023-02-01T04:51:10;100370.84;;;7.09;67.46
77545;BME280;66672;50.328;7.610;2023-02-01T04:53:35;100366.41;;;7.10;67.77
77545;BME280;66672;50.328;7.610;2023-02-01T04:56:01;100359.38;;;7.09;67.93
77545;BME280;66672;50.328;7.610;2023-02-01T04:58:26;100370.66;;;7.39;66.39
77545;BME280;66672;50.328;7.610;2023-02-01T05:00:52;100370.31;;;7.31;67.28
77545;BME280;66672;50.328;7.610;2023-02-01T05:03:18;100352.72;;;6.89;67.67
77545;BME280;66672;50.328;7.610;2023-02-01T05:05:43;100365.25;;;7.14;68.58
77545;BME280;66672;50.328;7.610;2023-02-01T05:08:08;100365.19;;;7.01;67.82
77545;BME280;66672;50.328;7.610;2023-02-01T05:10:34;100377.81;;;6.98;68.49
77545;BME280;66672;50.328;7.610;2023-02-01T05:12:59;100377.91;;;7.10;67.16
77545;BME280;66672;50.328;7.610;2023-02-01T05:15:43;100375.13;;;6.56;69.11
77545;BME280;66672;50.328;7.610;2023-02-01T05:18:08;100374.84;;;7.16;67.90
77545;BME280;66672;50.328;7.610;2023-02-01T05:20:34;100378.69;;;6.98;68.50
77545;BME280;66672;50.328;7.610;2023-02-01T05:22:59;100379.84;;;6.80;68.67
77545;BME280;66672;50.328;7.610;2023-02-01T05:25:24;100391.41;;;6.93;68.56
77545;BME280;66672;50.328;7.610;2023-02-01T05:27:50;100386.50;;;6.73;68.08
77545;BME280;66672;50.328;7.610;2023-02-01T05:30:15;100390.41;;;6.67;68.11
77545;BME280;66672;50.328;7.610;2023-02-01T05:32:41;100369.59;;;6.88;68.09
77545;BME280;66672;50.328;7.610;2023-02-01T05:35:06;100373.72;;;6.65;69.28
77545;BME280;66672;50.328;7.610;2023-02-01T05:37:32;100361.03;;;6.41;69.19
77545;BME280;66672;50.328;7.610;2023-02-01T05:39:57;100369.03;;;6.83;67.63
77545;BME280;66672;50.328;7.610;2023-02-01T05:42:22;100365.75;;;6.65;67.52
77545;BME280;66672;50.328;7.610;2023-02-01T05:44:48;100358.56;;;6.53;67.40
77545;BME280;66672;50.328;7.610;2023-02-01T05:47:13;100341.47;;;6.71;66.89
77545;BME280;66672;50.328;7.610;2023-02-01T05:49:38;100334.56;;;6.54;66.54
77545;BME280;66672;50.328;7.610;2023-02-01T05:52:04;100352.59;;;6.63;64.88
77545;BME280;66672;50.328;7.610;2023-02-01T05:54:29;100360.28;;;6.95;65.16
77545;BME280;66672;50.328;7.610;2023-02-01T05:56:55;100357.34;;;6.85;65.27
77545;BME280;66672;50.328;7.610;2023-02-01T05:59:20;100353.44;;;6.64;63.85
77545;BME280;66672;50.328;7.610;2023-02-01T06:01:45;100351.97;;;6.87;64.52
77545;BME280;66672;50.328;7.610;2023-02-01T06:04:11;100356.84;;;6.66;64.86
77545;BME280;66672;50.328;7.610;2023-02-01T06:06:36;100357.69;;;6.66;64.92
77545;BME280;66672;50.328;7.610;2023-02-01T06:09:02;100363.84;;;6.67;65.08
77545;BME280;66672;50.328;7.610;2023-02-01T06:11:28;100374.31;;;6.97;63.15
77545;BME280;66672;50.328;7.610;2023-02-01T06:13:53;100375.69;;;6.76;63.47
77545;BME280;66672;50.328;7.610;2023-02-01T06:16:20;100389.94;;;6.75;63.82
77545;BME280;66672;50.328;7.610;2023-02-01T06:18:46;100378.75;;;6.70;63.42
77545;BME280;66672;50.328;7.610;2023-02-01T06:21:11;100377.47;;;6.89;63.38
77545;BME280;66672;50.328;7.610;2023-02-01T06:23:38;100367.44;;;7.07;61.68
77545;BME280;66672;50.328;7.610;2023-02-01T06:26:06;100372.19;;;6.75;61.33
77545;BME280;66672;50.328;7.610;2023-02-01T06:28:33;100349.66;;;6.95;61.99
77545;BME280;66672;50.328;7.610;2023-02-01T06:31:03;100364.34;;;7.01;61.61
77545;BME280;66672;50.328;7.610;2023-02-01T06:33:31;100365.13;;;6.88;62.30
77545;BME280;66672;50.328;7.610;2023-02-01T06:36:01;100368.25;;;6.95;61.52
77545;BME280;66672;50.328;7.610;2023-02-01T06:38:27;100368.13;;;6.55;63.09
77545;BME280;66672;50.328;7.610;2023-02-01T06:40:53;100363.84;;;6.81;62.88
77545;BME280;66672;50.328;7.610;2023-02-01T06:43:20;100373.50;;;6.82;63.03
77545;BME280;66672;50.328;7.610;2023-02-01T06:45:45;100357.63;;;6.95;62.36
77545;BME280;66672;50.328;7.610;2023-02-01T06:48:10;100363.91;;;6.80;62.40
77545;BME280;66672;50.328;7.610;2023-02-01T06:50:36;100362.25;;;6.64;62.36
77545;BME280;66672;50.328;7.610;2023-02-01T06:53:01;100356.41;;;6.45;62.04
77545;BME280;66672;50.328;7.610;2023-02-01T06:55:26;100366.78;;;6.77;61.99
77545;BME280;66672;50.328;7.610;2023-02-01T06:57:55;100348.22;;;6.48;62.01
77545;BME280;66672;50.328;7.610;2023-02-01T07:00:21;100358.50;;;6.40;62.81
77545;BME280;66672;50.328;7.610;2023-02-01T07:02:47;100354.81;;;6.28;63.29
77545;BME280;66672;50.328;7.610;2023-02-01T07:05:12;100355.25;;;6.35;62.68
77545;BME280;66672;50.328;7.610;2023-02-01T07:07:37;100370.69;;;6.00;63.75
77545;BME280;66672;50.328;7.610;2023-02-01T07:10:03;100366.25;;;6.57;62.32
77545;BME280;66672;50.328;7.610;2023-02-01T07:12:28;100374.88;;;6.47;62.47
77545;BME280;66672;50.328;7.610;2023-02-01T07:14:54;100380.56;;;6.26;62.76
77545;BME280;66672;50.328;7.610;2023-02-01T07:17:19;100380.91;;;6.77;61.90
77545;BME280;66672;50.328;7.610;2023-02-01T07:19:44;100388.91;;;6.34;63.01
77545;BME280;66672;50.328;7.610;2023-02-01T07:22:09;100388.44;;;6.28;62.54
77545;BME280;66672;50.328;7.610;2023-02-01T07:24:35;100392.41;;;6.49;62.83
77545;BME280;66672;50.328;7.610;2023-02-01T07:27:00;100396.09;;;6.75;62.16
77545;BME280;66672;50.328;7.610;2023-02-01T07:29:25;100392.13;;;6.25;63.26
77545;BME280;66672;50.328;7.610;2023-02-01T07:31:51;100397.44;;;6.54;63.02
77545;BME280;66672;50.328;7.610;2023-02-01T07:34:16;100401.78;;;6.55;62.41
77545;BME280;66672;50.328;7.610;2023-02-01T07:36:41;100409.19;;;6.35;62.90
77545;BME280;66672;50.328;7.610;2023-02-01T07:39:07;100386.16;;;6.36;63.37
77545;BME280;66672;50.328;7.610;2023-02-01T07:41:33;100403.41;;;6.72;62.06
77545;BME280;66672;50.328;7.610;2023-02-01T07:43:58;100398.75;;;6.32;62.69
77545;BME280;66672;50.328;7.610;2023-02-01T07:46:23;100407.56;;;6.76;62.47
77545;BME280;66672;50.328;7.610;2023-02-01T07:48:49;100410.19;;;6.90;61.55
77545;BME280;66672;50.328;7.610;2023-02-01T07:51:16;100415.16;;;6.67;61.71
77545;BME280;66672;50.328;7.610;2023-02-01T07:53:42;100403.22;;;6.32;62.69
77545;BME280;66672;50.328;7.610;2023-02-01T07:56:16;100418.09;;;6.77;61.78
77545;BME280;66672;50.328;7.610;2023-02-01T07:58:42;100422.09;;;6.56;62.01
77545;BME280;66672;50.328;7.610;2023-02-01T08:01:16;100418.13;;;6.63;62.28
77545;BME280;66672;50.328;7.610;2023-02-01T08:06:16;100428.13;;;7.01;61.34
77545;BME280;66672;50.328;7.610;2023-02-01T08:08:41;100433.31;;;7.02;60.87
77545;BME280;66672;50.328;7.610;2023-02-01T08:11:10;100435.84;;;6.77;61.64
77545;BME280;66672;50.328;7.610;2023-02-01T08:13:35;100442.97;;;7.17;60.91
77545;BME280;66672;50.328;7.610;2023-02-01T08:16:03;100428.44;;;6.82;61.82
77545;BME280;66672;50.328;7.610;2023-02-01T08:18:28;100442.94;;;6.48;62.88
77545;BME280;66672;50.328;7.610;2023-02-01T08:20:54;100455.91;;;6.95;61.67
77545;BME280;66672;50.328;7.610;2023-02-01T08:23:20;100464.97;;;7.19;61.69
77545;BME280;66672;50.328;7.610;2023-02-01T08:25:45;100459.25;;;6.99;61.58
77545;BME280;66672;50.328;7.610;2023-02-01T08:28:11;100468.06;;;6.85;62.48
77545;BME280;66672;50.328;7.610;2023-02-01T08:30:37;100464.47;;;6.72;62.86
77545;BME280;66672;50.328;7.610;2023-02-01T08:33:07;100450.22;;;7.01;62.13
77545;BME280;66672;50.328;7.610;2023-02-01T08:35:34;100456.97;;;6.92;62.06
77545;BME280;66672;50.328;7.610;2023-02-01T08:38:00;100463.69;;;7.12;62.36
77545;BME280;66672;50.328;7.610;2023-02-01T08:40:26;100459.75;;;6.77;62.94
77545;BME280;66672;50.328;7.610;2023-02-01T08:42:51;100472.25;;;6.89;62.92
77545;BME280;66672;50.328;7.610;2023-02-01T08:45:22;100473.63;;;7.09;61.60
77545;BME280;66672;50.328;7.610;2023-02-01T08:47:50;100461.53;;;7.05;62.10
77545;BME280;66672;50.328;7.610;2023-02-01T08:50:15;100456.41;;;6.73;62.94
77545;BME280;66672;50.328;7.610;2023-02-01T08:52:41;100458.22;;;6.87;62.64
77545;BME280;66672;50.328;7.610;2023-02-01T08:55:07;100458.00;;;6.90;61.99
77545;BME280;66672;50.328;7.610;2023-02-01T08:57:33;100461.53;;;7.05;61.76
77545;BME280;66672;50.328;7.610;2023-02-01T08:59:58;100469.75;;;7.14;62.42
77545;BME280;66672;50.328;7.610;2023-02-01T09:02:25;100472.53;;;6.84;62.45
77545;BME280;66672;50.328;7.610;2023-02-01T09:04:50;100463.50;;;7.15;62.09
77545;BME280;66672;50.328;7.610;2023-02-01T09:07:15;100467.09;;;7.14;61.58
77545;BME280;66672;50.328;7.610;2023-02-01T09:09:43;100465.56;;;7.25;60.75
77545;BME280;66672;50.328;7.610;2023-02-01T09:12:09;100481.09;;;7.45;61.77
77545;BME280;66672;50.328;7.610;2023-02-01T09:14:34;100483.72;;;6.61;62.59
77545;BME280;66672;50.328;7.610;2023-02-01T09:16:59;100470.81;;;6.98;61.32
77545;BME280;66672;50.328;7.610;2023-02-01T09:19:24;100472.34;;;6.87;60.63
77545;BME280;66672;50.328;7.610;2023-02-01T09:21:50;100493.72;;;7.41;60.15
77545;BME280;66672;50.328;7.610;2023-02-01T09:24:15;100493.81;;;7.40;61.40
77545;BME280;66672;50.328;7.610;2023-02-01T09:26:40;100495.94;;;7.20;61.29
77545;BME280;66672;50.328;7.610;2023-02-01T09:29:06;100492.34;;;7.21;60.56
77545;BME280;66672;50.328;7.610;2023-02-01T09:31:39;100497.22;;;7.42;60.70
77545;BME280;66672;50.328;7.610;2023-02-01T09:34:05;100488.88;;;6.92;60.93
77545;BME280;66672;50.328;7.610;2023-02-01T09:36:30;100490.03;;;7.30;60.27
77545;BME280;66672;50.328;7.610;2023-02-01T09:38:56;100497.28;;;7.55;60.41
77545;BME280;66672;50.328;7.610;2023-02-01T09:44:16;100501.03;;;7.38;59.71
77545;BME280;66672;50.328;7.610;2023-02-01T09:46:47;100483.81;;;7.16;60.85
77545;BME280;66672;50.328;7.610;2023-02-01T09:49:17;100484.25;;;7.23;61.20
77545;BME280;66672;50.328;7.610;2023-02-01T09:51:46;100497.72;;;7.20;60.87
77545;BME280;66672;50.328;7.610;2023-02-01T09:54:16;100497.91;;;7.31;61.20
77545;BME280;66672;50.328;7.610;2023-02-01T09:56:47;100491.63;;;7.32;60.96
77545;BME280;66672;50.328;7.610;2023-02-01T09:59:29;100496.31;;;7.14;60.91
77545;BME280;66672;50.328;7.610;2023-02-01T10:01:57;100481.31;;;7.28;61.01
77545;BME280;66672;50.328;7.610;2023-02-01T10:04:24;100481.69;;;7.63;60.17
77545;BME280;66672;50.328;7.610;2023-02-01T10:07:05;100488.84;;;7.48;61.49
77545;BME280;66672;50.328;7.610;2023-02-01T10:09:38;100491.56;;;7.19;62.09
77545;BME280;66672;50.328;7.610;2023-02-01T10:14:57;100487.41;;;7.96;59.69
77545;BME280;66672;50.328;7.610;2023-02-01T10:17:45;100484.16;;;7.25;61.12
77545;BME280;66672;50.328;7.610;2023-02-01T10:20:29;100478.66;;;7.55;60.51
77545;BME280;66672;50.328;7.610;2023-02-01T10:28:33;100464.84;;;8.02;59.62
77545;BME280;66672;50.328;7.610;2023-02-01T10:31:00;100458.06;;;8.11;58.93
77545;BME280;66672;50.328;7.610;2023-02-01T10:33:36;100461.03;;;7.12;60.64
77545;BME280;66672;50.328;7.610;2023-02-01T10:38:33;100457.38;;;7.55;60.25
77545;BME280;66672;50.328;7.610;2023-02-01T10:41:03;100451.50;;;7.77;59.65
77545;BME280;66672;50.328;7.610;2023-02-01T10:43:29;100458.00;;;7.45;60.70
77545;BME280;66672;50.328;7.610;2023-02-01T10:45:56;100447.00;;;7.10;61.46
77545;BME280;66672;50.328;7.610;2023-02-01T10:48:22;100456.41;;;7.83;59.84
77545;BME280;66672;50.328;7.610;2023-02-01T10:51:12;100464.41;;;7.83;60.23
77545;BME280;66672;50.328;7.610;2023-02-01T10:53:46;100455.38;;;7.58;61.23
77545;BME280;66672;50.328;7.610;2023-02-01T10:56:21;100451.63;;;7.75;60.38
77545;BME280;66672;50.328;7.610;2023-02-01T10:58:47;100441.97;;;7.60;60.81
77545;BME280;66672;50.328;7.610;2023-02-01T11:01:21;100457.78;;;7.48;60.44
77545;BME280;66672;50.328;7.610;2023-02-01T11:03:58;100452.19;;;7.12;61.06
77545;BME280;66672;50.328;7.610;2023-02-01T11:06:35;100452.16;;;7.53;59.75
77545;BME280;66672;50.328;7.610;2023-02-01T11:14:35;100450.03;;;7.04;61.70
77545;BME280;66672;50.328;7.610;2023-02-01T11:19:45;100459.66;;;7.19;61.14
77545;BME280;66672;50.328;7.610;2023-02-01T11:22:12;100450.59;;;7.36;61.00
77545;BME280;66672;50.328;7.610;2023-02-01T11:24:39;100451.63;;;7.07;62.17
77545;BME280;66672;50.328;7.610;2023-02-01T11:27:16;100446.59;;;7.43;61.28
77545;BME280;66672;50.328;7.610;2023-02-01T11:29:45;100442.44;;;7.39;61.76
77545;BME280;66672;50.328;7.610;2023-02-01T11:32:14;100441.59;;;7.79;60.45
77545;BME280;66672;50.328;7.610;2023-02-01T11:35:14;100420.75;;;7.85;60.38
77545;BME280;66672;50.328;7.610;2023-02-01T11:37:41;100420.31;;;7.79;60.67
77545;BME280;66672;50.328;7.610;2023-02-01T11:42:59;100422.81;;;7.55;60.44
77545;BME280;66672;50.328;7.610;2023-02-01T11:45:31;100413.97;;;7.81;60.45
77545;BME280;66672;50.328;7.610;2023-02-01T11:47:59;100400.91;;;8.54;57.97
77545;BME280;66672;50.328;7.610;2023-02-01T11:50:46;100416.16;;;8.40;58.62
77545;BME280;66672;50.328;7.610;2023-02-01T12:07:29;100408.00;;;7.90;59.35
77545;BME280;66672;50.328;7.610;2023-02-01T12:10:26;100401.22;;;8.37;59.23
77545;BME280;66672;50.328;7.610;2023-02-01T12:13:16;100386.44;;;7.55;59.84
77545;BME280;66672;50.328;7.610;2023-02-01T12:15:58;100395.28;;;8.21;58.27
77545;BME280;66672;50.328;7.610;2023-02-01T12:21:28;100405.06;;;8.59;57.43
77545;BME280;66672;50.328;7.610;2023-02-01T12:26:40;100377.38;;;8.48;58.56
77545;BME280;66672;50.328;7.610;2023-02-01T12:29:35;100382.16;;;8.31;57.85
77545;BME280;66672;50.328;7.610;2023-02-01T12:32:23;100378.19;;;7.85;58.46
77545;BME280;66672;50.328;7.610;2023-02-01T12:35:33;100380.22;;;8.20;58.87
77545;BME280;66672;50.328;7.610;2023-02-01T12:41:04;100364.78;;;7.74;59.97
77545;BME280;66672;50.328;7.610;2023-02-01T12:43:39;100357.00;;;7.96;58.88
77545;BME280;66672;50.328;7.610;2023-02-01T12:46:13;100342.22;;;8.18;59.41
77545;BME280;66672;50.328;7.610;2023-02-01T12:49:00;100349.47;;;8.16;58.77
77545;BME280;66672;50.328;7.610;2023-02-01T12:51:29;100336.50;;;7.98;59.36
77545;BME280;66672;50.328;7.610;2023-02-01T12:54:02;100350.72;;;8.48;58.32
77545;BME280;66672;50.328;7.610;2023-02-01T12:56:41;100340.00;;;7.99;59.05
77545;BME280;66672;50.328;7.610;2023-02-01T12:59:28;100335.72;;;7.96;59.54
77545;BME280;66672;50.328;7.610;2023-02-01T13:07:34;100328.97;;;8.54;57.98
77545;BME280;66672;50.328;7.610;2023-02-01T13:10:18;100338.09;;;8.39;58.51
77545;BME280;66672;50.328;7.610;2023-02-01T13:12:50;100352.13;;;8.28;57.54
77545;BME280;66672;50.328;7.610;2023-02-01T13:15:33;100357.34;;;8.05;58.25
77545;BME280;66672;50.328;7.610;2023-02-01T13:18:04;100331.94;;;8.75;57.06
77545;BME280;66672;50.328;7.610;2023-02-01T13:20:36;100335.31;;;8.41;58.33
77545;BME280;66672;50.328;7.610;2023-02-01T13:23:13;100344.69;;;8.46;58.06
77545;BME280;66672;50.328;7.610;2023-02-01T13:25:49;100353.28;;;8.50;57.79
77545;BME280;66672;50.328;7.610;2023-02-01T13:28:36;100334.97;;;8.07;58.94
77545;BME280;66672;50.328;7.610;2023-02-01T13:31:27;100359.50;;;8.50;57.94
77545;BME280;66672;50.328;7.610;2023-02-01T13:39:47;100359.16;;;8.17;59.14
77545;BME280;66672;50.328;7.610;2023-02-01T13:42:27;100331.56;;;8.31;58.59
77545;BME280;66672;50.328;7.610;2023-02-01T13:45:03;100335.19;;;8.42;58.63
77545;BME280;66672;50.328;7.610;2023-02-01T13:47:51;100324.75;;;8.14;59.06
77545;BME280;66672;50.328;7.610;2023-02-01T13:50:33;100323.88;;;8.26;58.32
77545;BME280;66672;50.328;7.610;2023-02-01T13:55:38;100317.72;;;8.38;58.09
77545;BME280;66672;50.328;7.610;2023-02-01T14:00:36;100314.56;;;7.95;57.38
77545;BME280;66672;50.328;7.610;2023-02-01T14:08:10;100303.78;;;8.22;57.32
77545;BME280;66672;50.328;7.610;2023-02-01T14:13:34;100293.13;;;8.22;56.11
77545;BME280;66672;50.328;7.610;2023-02-01T14:23:42;100291.25;;;8.61;54.91
77545;BME280;66672;50.328;7.610;2023-02-01T14:26:10;100288.00;;;8.44;55.72
77545;BME280;66672;50.328;7.610;2023-02-01T14:28:40;100286.38;;;8.54;54.62
77545;BME280;66672;50.328;7.610;2023-02-01T14:31:32;100292.53;;;8.68;54.49
77545;BME280;66672;50.328;7.610;2023-02-01T14:34:01;100284.09;;;8.61;54.56
77545;BME280;66672;50.328;7.610;2023-02-01T14:36:40;100284.16;;;8.48;55.27
77545;BME280;66672;50.328;7.610;2023-02-01T14:39:19;100275.19;;;8.49;54.76
77545;BME280;66672;50.328;7.610;2023-02-01T14:41:46;100298.84;;;8.54;54.65
77545;BME280;66672;50.328;7.610;2023-02-01T14:44:21;100290.59;;;8.70;54.91
77545;BME280;66672;50.328;7.610;2023-02-01T14:47:26;100290.19;;;8.63;54.30
77545;BME280;66672;50.328;7.610;2023-02-01T14:50:03;100297.44;;;8.85;54.19
77545;BME280;66672;50.328;7.610;2023-02-01T14:55:04;100284.94;;;8.98;53.87
77545;BME280;66672;50.328;7.610;2023-02-01T14:57:34;100305.81;;;8.80;54.61
77545;BME280;66672;50.328;7.610;2023-02-01T15:00:07;100309.06;;;8.84;54.20
77545;BME280;66672;50.328;7.610;2023-02-01T15:02:35;100322.06;;;9.13;54.74